Time;durP1;ratioP1;P1;durP2;ratioP2;P2;SDS_P1;SDS_P2;PMS_P1;PMS_P2;Temp;Humidity;BMP_temperature;BMP_pressure;BME280_temperature;BME280_humidity;BME280_pressure;Samples;Min_cycle;Max_cycle;Signal;HPM_P1;HPM_P2
2022/08/31 00:04:01;;;;;;;0.55;0.00;;;;;;;13.06;63.89;102311.41;2096974;28;31585;-75
2022/08/31 00:05:04;;;;;;;0.85;0.10;;;;;;;13.01;64.86;102307.91;2087665;28;33662;-75
2022/08/31 00:06:06;;;;;;;0.20;0.00;;;;;;;12.95;64.64;102308.84;2088412;28;30216;-75
2022/08/31 00:07:09;;;;;;;1.67;0.10;;;;;;;12.95;64.47;102308.84;2096786;28;34320;-75
2022/08/31 00:08:11;;;;;;;0.57;0.00;;;;;;;12.91;64.43;102312.47;2096822;28;29203;-75
2022/08/31 00:09:13;;;;;;;1.08;0.00;;;;;;;12.91;64.35;102311.59;2096831;28;29139;-75
2022/08/31 00:10:17;;;;;;;0.20;0.00;;;;;;;12.87;65.58;102313.44;2097143;28;20083;-76
2022/08/31 00:11:26;;;;;;;0.10;0.00;;;;;;;12.84;64.78;102315.25;2087873;28;33563;-75
2022/08/31 00:12:28;;;;;;;0.43;0.03;;;;;;;12.84;65.58;102310.75;2089092;28;25762;-76
2022/08/31 00:13:30;;;;;;;0.60;0.00;;;;;;;12.84;65.16;102307.19;2096715;28;34797;-75
2022/08/31 00:14:32;;;;;;;0.20;0.00;;;;;;;12.86;65.96;102300.88;2087686;28;30344;-76
2022/08/31 00:15:34;;;;;;;0.20;0.10;;;;;;;12.85;65.46;102306.25;2088152;28;35682;-76
2022/08/31 00:16:39;;;;;;;0.68;0.10;;;;;;;12.84;65.54;102302.69;2096690;28;31384;-76
2022/08/31 00:17:41;;;;;;;0.40;0.00;;;;;;;12.85;65.94;102299.13;2088308;28;25286;-76
2022/08/31 00:18:45;;;;;;;1.80;0.00;;;;;;;12.82;65.76;102304.50;2088326;28;21075;-76
2022/08/31 00:19:47;;;;;;;0.80;0.10;;;;;;;12.82;66.28;102304.50;2096858;28;28394;-75
2022/08/31 00:20:49;;;;;;;0.22;0.00;;;;;;;12.79;66.34;102301.84;2096741;28;24363;-76
2022/08/31 00:21:51;;;;;;;0.40;0.00;;;;;;;12.78;66.79;102300.97;2097251;28;32375;-76
2022/08/31 00:22:52;;;;;;;0.47;0.10;;;;;;;12.77;66.70;102303.66;2096600;28;24704;-76
2022/08/31 00:23:54;;;;;;;0.22;0.00;;;;;;;12.76;66.55;102301.91;2096675;28;32671;-76
2022/08/31 00:24:56;;;;;;;1.23;0.10;;;;;;;12.72;66.31;102303.72;2088106;28;20033;-76
2022/08/31 00:26:00;;;;;;;2.05;0.10;;;;;;;12.65;67.03;102306.47;2089025;28;20906;-76
2022/08/31 00:27:04;;;;;;;0.40;0.10;;;;;;;12.59;66.81;102300.25;2096625;28;26753;-76
2022/08/31 00:28:09;;;;;;;1.65;0.00;;;;;;;12.65;67.78;102306.47;2088134;28;22092;-76
2022/08/31 00:29:13;;;;;;;0.45;0.00;;;;;;;12.64;67.71;102302.03;2079894;28;21213;-76
2022/08/31 00:30:15;;;;;;;0.40;0.08;;;;;;;12.62;67.57;102301.16;2081098;28;20825;-76
2022/08/31 00:31:17;;;;;;;1.75;0.10;;;;;;;12.62;67.56;102310.09;2087909;28;29397;-76
2022/08/31 00:32:19;;;;;;;0.13;0.00;;;;;;;12.58;67.76;102309.22;2088171;28;20244;-76
2022/08/31 00:33:22;;;;;;;0.70;0.10;;;;;;;12.55;67.65;102308.38;2087990;28;20049;-75
2022/08/31 00:34:26;;;;;;;0.40;0.10;;;;;;;12.54;67.72;102303.88;2088139;28;20045;-76
2022/08/31 00:35:34;;;;;;;3.03;0.00;;;;;;;12.53;67.73;102308.38;2079827;28;20898;-75
2022/08/31 00:36:38;;;;;;;0.55;0.10;;;;;;;12.54;68.06;102314.63;2088773;28;30216;-76
2022/08/31 00:37:41;;;;;;;1.30;0.03;;;;;;;12.53;68.12;102312.88;2088297;28;20038;-75
2022/08/31 00:38:43;;;;;;;1.08;0.20;;;;;;;12.49;68.77;102314.69;2087704;28;24366;-75
2022/08/31 00:39:45;;;;;;;2.20;0.10;;;;;;;12.47;68.63;102311.13;2087530;28;25234;-75
2022/08/31 00:40:47;;;;;;;0.50;0.10;;;;;;;12.46;68.62;102321.88;2097384;28;20103;-76
2022/08/31 00:41:49;;;;;;;1.23;0.10;;;;;;;12.39;68.79;102312.97;2087570;28;20049;-75
2022/08/31 00:42:53;;;;;;;0.20;0.00;;;;;;;12.41;68.93;102314.72;2079571;28;20161;-76
2022/08/31 00:43:59;;;;;;;1.75;0.08;;;;;;;12.40;68.68;102317.47;2088699;28;20104;-75
2022/08/31 00:45:01;;;;;;;0.65;0.10;;;;;;;12.37;68.97;102310.31;2087737;28;28283;-75
2022/08/31 00:46:03;;;;;;;0.40;0.08;;;;;;;12.34;69.32;102313.00;2079439;28;20137;-75
2022/08/31 00:47:06;;;;;;;0.20;0.08;;;;;;;12.34;69.45;102314.81;2088397;28;20050;-75
2022/08/31 00:48:07;;;;;;;1.15;0.10;;;;;;;12.34;69.44;102314.81;2087742;28;20135;-75
2022/08/31 00:49:22;;;;;;;1.65;0.10;;;;;;;12.29;69.74;102316.63;2088100;28;20136;-76
2022/08/31 00:50:25;;;;;;;0.57;0.10;;;;;;;12.25;69.26;102318.44;2087627;28;24015;-75
2022/08/31 00:51:31;;;;;;;2.38;0.10;;;;;;;12.25;70.24;102320.25;2079884;28;21342;-75
2022/08/31 00:52:40;;;;;;;0.20;0.00;;;;;;;12.22;70.64;102322.06;2080815;28;20034;-75
2022/08/31 00:53:43;;;;;;;0.75;0.10;;;;;;;12.26;70.56;102327.38;2081477;28;20950;-75
2022/08/31 00:54:53;;;;;;;0.63;0.10;;;;;;;12.21;70.28;102328.31;2089804;28;20038;-75
2022/08/31 00:55:55;;;;;;;0.38;0.00;;;;;;;12.19;70.04;102323.88;2095918;28;23405;-75
2022/08/31 00:56:58;;;;;;;0.43;0.08;;;;;;;12.19;70.31;102324.75;2079841;28;20124;-76
2022/08/31 00:58:08;;;;;;;1.23;0.10;;;;;;;12.18;71.13;102325.66;2080002;28;20034;-75
2022/08/31 00:59:15;;;;;;;0.60;0.10;;;;;;;12.15;70.96;102325.69;2079687;28;20119;-75
2022/08/31 01:00:23;;;;;;;0.28;0.10;;;;;;;12.13;71.16;102324.81;2080125;28;24090;-75
2022/08/31 01:01:26;;;;;;;1.23;0.00;;;;;;;12.12;71.01;102322.16;2088616;28;25313;-75
2022/08/31 01:02:28;;;;;;;0.82;0.10;;;;;;;12.11;71.98;102328.41;2087384;28;20088;-76
2022/08/31 01:03:30;;;;;;;0.38;0.10;;;;;;;12.10;71.75;102322.16;2087622;28;20856;-75
2022/08/31 01:04:32;;;;;;;1.95;0.10;;;;;;;12.13;72.17;102323.91;2087998;28;24686;-76
2022/08/31 01:05:36;;;;;;;1.90;0.10;;;;;;;12.12;71.38;102328.41;2087877;28;20066;-76
2022/08/31 01:06:42;;;;;;;0.30;0.10;;;;;;;12.19;71.39;102332.81;2088362;28;20040;-76
2022/08/31 01:07:46;;;;;;;0.45;0.10;;;;;;;12.19;71.31;102327.44;2088380;28;20077;-75
2022/08/31 01:08:49;;;;;;;1.05;0.10;;;;;;;12.16;71.72;102327.47;2088305;28;21097;-75
2022/08/31 01:09:53;;;;;;;0.30;0.10;;;;;;;12.16;71.23;102330.16;2079668;28;20073;-75
2022/08/31 01:11:00;;;;;;;0.32;0.10;;;;;;;12.15;71.72;102328.38;2081121;28;20059;-75
2022/08/31 01:12:07;;;;;;;0.63;0.10;;;;;;;12.16;71.48;102334.63;2096953;28;20919;-76
2022/08/31 01:13:11;;;;;;;1.42;0.10;;;;;;;12.14;71.67;102331.06;2087985;28;20038;-76
2022/08/31 01:14:13;;;;;;;0.28;0.10;;;;;;;12.10;72.03;102334.69;2089142;28;20022;-75
2022/08/31 01:15:15;;;;;;;2.35;0.10;;;;;;;12.12;72.24;102327.50;2079789;28;20204;-75
2022/08/31 01:16:27;;;;;;;1.55;0.08;;;;;;;12.10;72.73;102334.69;2071895;28;20089;-75
2022/08/31 01:17:32;;;;;;;2.22;0.00;;;;;;;12.14;72.70;102329.28;2080839;28;20030;-75
2022/08/31 01:18:35;;;;;;;1.52;0.10;;;;;;;12.08;72.29;102334.69;2073434;28;20042;-75
2022/08/31 01:19:50;;;;;;;0.50;0.10;;;;;;;12.03;71.96;102332.03;2081087;28;20053;-75
2022/08/31 01:21:36;;;;;;;1.20;0.10;;;;;;;12.02;72.94;102340.09;2087852;28;22722;-75
2022/08/31 01:23:01;;;;;;;0.75;0.10;;;;;;;12.02;72.83;102342.78;2087308;28;20913;-75
2022/08/31 01:24:04;;;;;;;0.30;0.10;;;;;;;11.95;73.16;102339.25;2083101;28;20042;-77
2022/08/31 01:25:06;;;;;;;3.50;0.20;;;;;;;12.00;73.82;102337.41;2082695;28;20914;-77
2022/08/31 01:26:21;;;;;;;0.30;0.03;;;;;;;11.98;73.81;102344.59;2087892;28;20034;-77
2022/08/31 01:27:28;;;;;;;0.30;0.10;;;;;;;11.99;73.58;102340.13;2080456;28;22739;-77
2022/08/31 01:28:31;;;;;;;0.85;0.10;;;;;;;11.96;73.43;102340.16;2082394;28;20038;-78
2022/08/31 01:29:34;;;;;;;1.17;0.10;;;;;;;11.96;74.30;102337.47;2087577;28;21976;-74
2022/08/31 01:30:37;;;;;;;0.80;0.10;;;;;;;11.93;73.50;102332.09;2097231;28;20029;-76
2022/08/31 01:31:46;;;;;;;0.20;0.10;;;;;;;11.90;74.27;102334.75;2079373;28;20168;-75
2022/08/31 01:32:51;;;;;;;2.15;0.20;;;;;;;11.89;74.58;102343.72;2083391;28;20914;-76
2022/08/31 01:33:54;;;;;;;1.10;0.10;;;;;;;11.84;74.26;102338.38;2096105;28;30750;-76
2022/08/31 01:34:56;;;;;;;0.90;0.10;;;;;;;11.80;74.56;102334.81;2097084;28;20041;-76
2022/08/31 01:35:58;;;;;;;2.47;0.10;;;;;;;11.81;74.92;102336.63;2087776;28;20033;-76
2022/08/31 01:37:00;;;;;;;0.40;0.10;;;;;;;11.81;75.07;102333.94;2079595;28;21294;-76
2022/08/31 01:38:03;;;;;;;0.55;0.10;;;;;;;11.75;75.12;102336.63;2088059;28;20785;-76
2022/08/31 01:39:09;;;;;;;0.65;0.10;;;;;;;11.73;75.72;102338.44;2087804;28;20895;-77
2022/08/31 01:40:11;;;;;;;1.05;0.10;;;;;;;11.71;75.46;102334.88;2079711;28;25405;-76
2022/08/31 01:41:13;;;;;;;1.00;0.10;;;;;;;11.69;75.70;102342.03;2079929;28;20826;-77
2022/08/31 01:42:17;;;;;;;3.10;0.10;;;;;;;11.68;75.74;102332.19;2079373;28;20153;-76
2022/08/31 01:43:20;;;;;;;0.30;0.10;;;;;;;11.64;76.24;102331.31;2071544;28;20042;-77
2022/08/31 01:44:25;;;;;;;0.45;0.10;;;;;;;11.63;75.95;102332.25;2072152;28;20042;-76
2022/08/31 01:45:28;;;;;;;0.45;0.10;;;;;;;11.64;76.13;102327.75;2088124;28;20061;-77
2022/08/31 01:46:30;;;;;;;0.63;0.10;;;;;;;11.60;76.32;102331.38;2096186;28;23857;-76
2022/08/31 01:47:34;;;;;;;1.10;0.10;;;;;;;11.57;76.74;102331.38;2087884;28;20046;-77
2022/08/31 01:48:38;;;;;;;0.93;0.15;;;;;;;11.54;76.51;102331.38;2079364;28;20823;-77
2022/08/31 01:49:44;;;;;;;0.40;0.10;;;;;;;11.53;77.07;102327.81;2080425;28;20875;-75
2022/08/31 01:50:46;;;;;;;0.75;0.10;;;;;;;11.56;77.04;102334.97;2071825;28;20077;-75
2022/08/31 01:51:51;;;;;;;1.17;0.10;;;;;;;11.53;77.33;102324.25;2071967;28;20050;-73
2022/08/31 01:52:53;;;;;;;0.93;0.10;;;;;;;11.52;77.21;102328.72;2079661;28;20204;-75
2022/08/31 01:53:55;;;;;;;1.08;0.20;;;;;;;11.54;76.94;102331.38;2079475;28;20862;-74
2022/08/31 01:54:57;;;;;;;1.55;0.10;;;;;;;11.52;77.51;102331.41;2087655;28;30526;-75
2022/08/31 01:55:59;;;;;;;1.98;0.10;;;;;;;11.51;77.36;102326.03;2087601;28;20049;-74
2022/08/31 01:57:01;;;;;;;1.90;0.20;;;;;;;11.48;77.58;102332.28;2079484;28;20041;-74
2022/08/31 01:58:28;;;;;;;0.98;0.10;;;;;;;11.47;77.73;102330.53;2078984;28;20049;-75
2022/08/31 01:59:53;;;;;;;1.02;0.10;;;;;;;11.50;77.55;102326.94;2067399;28;20058;-75
2022/08/31 02:01:15;;;;;;;1.98;0.50;;;;;;;11.42;77.94;102333.22;2090083;28;20168;-75
2022/08/31 02:02:20;;;;;;;0.65;0.10;;;;;;;11.46;77.61;102326.94;2072551;28;20043;-75
2022/08/31 02:03:21;;;;;;;2.30;0.15;;;;;;;11.44;78.05;102330.53;2065378;28;20911;-75
2022/08/31 02:04:27;;;;;;;1.40;0.10;;;;;;;11.40;78.53;102326.97;2072373;28;20850;-74
2022/08/31 02:05:30;;;;;;;2.17;0.20;;;;;;;11.38;78.54;102331.47;2080900;28;20963;-75
2022/08/31 02:06:34;;;;;;;2.28;0.20;;;;;;;11.34;78.76;102335.06;2072567;28;20038;-75
2022/08/31 02:07:36;;;;;;;1.00;0.20;;;;;;;11.39;78.43;102335.91;2073431;28;20098;-75
2022/08/31 02:08:39;;;;;;;1.45;0.10;;;;;;;11.36;78.23;102333.25;2081316;28;20882;-75
2022/08/31 02:09:40;;;;;;;1.85;0.20;;;;;;;11.35;78.79;102336.81;2090022;28;20803;-75
2022/08/31 02:10:43;;;;;;;0.68;0.17;;;;;;;11.29;79.02;102331.50;2089784;28;20936;-75
2022/08/31 02:11:45;;;;;;;0.50;0.10;;;;;;;11.34;79.16;102335.06;2080434;28;24335;-75
2022/08/31 02:12:51;;;;;;;0.80;0.10;;;;;;;11.36;79.07;102343.97;2073305;28;20085;-75
2022/08/31 02:14:03;;;;;;;0.60;0.20;;;;;;;11.35;79.26;102342.19;2081442;28;20145;-75
2022/08/31 02:15:06;;;;;;;0.57;0.20;;;;;;;11.34;78.56;102343.09;2088334;28;20051;-75
2022/08/31 02:16:08;;;;;;;1.98;0.20;;;;;;;11.30;79.00;102341.31;2088807;28;26827;-75
2022/08/31 02:17:12;;;;;;;0.70;0.20;;;;;;;11.32;79.02;102341.31;2080279;28;20046;-75
2022/08/31 02:18:14;;;;;;;0.88;0.20;;;;;;;11.25;79.01;102340.41;2072673;28;20076;-75
2022/08/31 02:19:17;;;;;;;1.23;0.20;;;;;;;11.23;79.16;102340.47;2072063;28;20030;-75
2022/08/31 02:20:19;;;;;;;0.70;0.20;;;;;;;11.22;79.31;102335.97;2072778;28;20078;-76
2022/08/31 02:21:22;;;;;;;3.03;0.20;;;;;;;11.27;79.53;102342.22;2072312;28;20209;-75
2022/08/31 02:22:23;;;;;;;0.70;0.20;;;;;;;11.24;79.87;102333.28;2072815;28;20043;-75
2022/08/31 02:23:28;;;;;;;0.68;0.10;;;;;;;11.21;79.92;102335.97;2072646;28;20069;-76
2022/08/31 02:24:30;;;;;;;1.60;0.10;;;;;;;11.20;79.51;102336.88;2080499;28;25293;-76
2022/08/31 02:25:32;;;;;;;1.50;0.10;;;;;;;11.21;80.18;102344.91;2089179;28;26332;-75
2022/08/31 02:26:36;;;;;;;1.35;0.22;;;;;;;11.19;80.17;102340.47;2080993;28;20097;-75
2022/08/31 02:27:38;;;;;;;1.05;0.10;;;;;;;11.15;80.09;102338.69;2072632;28;20823;-75
2022/08/31 02:28:43;;;;;;;1.13;0.20;;;;;;;11.17;79.78;102329.72;2078602;28;20053;-76
2022/08/31 02:29:45;;;;;;;1.00;0.20;;;;;;;11.16;79.95;102340.47;2066019;28;20120;-75
2022/08/31 02:30:49;;;;;;;0.75;0.10;;;;;;;11.14;80.09;102344.94;2080400;28;20045;-75
2022/08/31 02:31:51;;;;;;;1.50;0.20;;;;;;;11.12;80.28;102342.25;2080717;28;20050;-75
2022/08/31 02:32:55;;;;;;;0.38;0.10;;;;;;;11.13;80.49;102341.38;2080827;28;20046;-75
2022/08/31 02:33:57;;;;;;;0.85;0.20;;;;;;;11.14;80.53;102342.25;2088722;28;28567;-75
2022/08/31 02:34:59;;;;;;;0.65;0.20;;;;;;;11.12;80.23;102334.22;2096686;28;20133;-75
2022/08/31 02:36:01;;;;;;;0.85;0.20;;;;;;;11.14;80.80;102331.53;2079996;28;20442;-75
2022/08/31 02:37:03;;;;;;;1.50;0.10;;;;;;;11.13;80.63;102341.38;2072947;28;20049;-75
2022/08/31 02:38:06;;;;;;;0.68;0.10;;;;;;;11.06;80.71;102331.56;2088374;28;27179;-74
2022/08/31 02:39:08;;;;;;;0.60;0.20;;;;;;;11.12;80.54;102333.31;2080362;28;20177;-75
2022/08/31 02:40:13;;;;;;;0.80;0.20;;;;;;;11.05;81.08;102341.41;2080993;28;21083;-75
2022/08/31 02:41:16;;;;;;;0.63;0.20;;;;;;;11.05;80.68;102338.72;2080908;28;20119;-75
2022/08/31 02:42:18;;;;;;;0.68;0.20;;;;;;;11.01;81.07;102341.41;2088935;28;20037;-76
2022/08/31 02:43:20;;;;;;;1.15;0.20;;;;;;;11.04;81.19;102334.25;2081086;28;20026;-76
2022/08/31 02:44:26;;;;;;;1.30;0.20;;;;;;;11.06;81.07;102334.25;2081156;28;20780;-76
2022/08/31 02:45:28;;;;;;;0.60;0.20;;;;;;;11.02;81.20;102336.03;2080552;28;20038;-76
2022/08/31 02:46:37;;;;;;;1.23;0.20;;;;;;;11.00;81.45;102335.16;2081384;28;20895;-76
2022/08/31 02:48:06;;;;;;;0.80;0.20;;;;;;;10.98;81.66;102336.03;2086763;28;20106;-75
2022/08/31 02:49:10;;;;;;;0.43;0.20;;;;;;;10.95;81.37;102336.94;2097436;28;20033;-76
2022/08/31 02:50:15;;;;;;;0.88;0.40;;;;;;;10.94;82.11;102334.25;2097857;28;20033;-76
2022/08/31 02:51:17;;;;;;;0.75;0.20;;;;;;;10.94;82.02;102334.25;2088859;28;20050;-75
2022/08/31 02:52:21;;;;;;;0.60;0.13;;;;;;;10.91;81.87;102334.25;2080583;28;20111;-76
2022/08/31 02:53:23;;;;;;;1.80;0.20;;;;;;;10.97;82.41;102335.16;2080693;28;20240;-75
2022/08/31 02:54:28;;;;;;;0.60;0.20;;;;;;;10.92;81.70;102330.69;2088727;28;20061;-76
2022/08/31 02:55:30;;;;;;;0.60;0.20;;;;;;;10.88;82.05;102336.06;2080513;28;20041;-75
2022/08/31 02:56:31;;;;;;;1.63;0.20;;;;;;;10.88;82.61;102337.84;2080498;28;20192;-76
2022/08/31 02:57:36;;;;;;;1.55;0.22;;;;;;;10.93;82.38;102333.38;2072088;28;20117;-75
2022/08/31 02:58:38;;;;;;;1.33;0.20;;;;;;;10.93;82.21;102338.75;2073342;28;20035;-76
2022/08/31 02:59:41;;;;;;;2.15;0.20;;;;;;;10.92;82.40;102336.06;2079988;28;20049;-76
2022/08/31 03:00:46;;;;;;;1.17;0.25;;;;;;;10.87;82.52;102339.66;2071840;28;20428;-76
2022/08/31 03:01:51;;;;;;;0.82;0.25;;;;;;;10.85;82.88;102338.72;2080948;28;20038;-76
2022/08/31 03:02:53;;;;;;;3.63;0.20;;;;;;;10.86;82.82;102336.97;2088950;28;20081;-76
2022/08/31 03:03:59;;;;;;;0.63;0.20;;;;;;;10.86;82.88;102342.31;2080349;28;20085;-76
2022/08/31 03:05:06;;;;;;;1.35;0.20;;;;;;;10.79;82.44;102335.19;2081194;28;21032;-76
2022/08/31 03:06:10;;;;;;;0.50;0.20;;;;;;;10.83;82.97;102334.28;2072166;28;20086;-75
2022/08/31 03:07:12;;;;;;;0.65;0.20;;;;;;;10.82;82.95;102335.16;2065245;28;20090;-76
2022/08/31 03:08:14;;;;;;;1.45;0.20;;;;;;;10.82;83.42;102341.44;2064534;28;20963;-76
2022/08/31 03:09:18;;;;;;;0.40;0.20;;;;;;;10.82;83.46;102336.09;2079710;28;20046;-76
2022/08/31 03:10:24;;;;;;;0.57;0.20;;;;;;;10.84;84.02;102336.09;2080386;28;20042;-76
2022/08/31 03:11:26;;;;;;;0.47;0.20;;;;;;;10.82;83.34;102329.81;2071859;28;20050;-75
2022/08/31 03:12:30;;;;;;;1.35;0.20;;;;;;;10.77;83.41;102331.63;2072539;28;20098;-75
2022/08/31 03:13:33;;;;;;;1.25;0.30;;;;;;;10.77;82.82;102324.47;2072255;28;20051;-75
2022/08/31 03:14:35;;;;;;;0.90;0.20;;;;;;;10.76;83.65;102332.50;2072111;28;21247;-75
2022/08/31 03:15:39;;;;;;;1.77;0.20;;;;;;;10.77;83.41;102326.28;2071830;28;20919;-75
2022/08/31 03:16:41;;;;;;;0.65;0.28;;;;;;;10.73;83.54;102340.53;2080845;28;20050;-76
2022/08/31 03:17:43;;;;;;;1.40;0.30;;;;;;;10.77;83.92;102329.84;2080121;28;20046;-76
2022/08/31 03:18:47;;;;;;;0.93;0.20;;;;;;;10.77;83.85;102337.88;2072072;28;20168;-76
2022/08/31 03:19:49;;;;;;;0.98;0.25;;;;;;;10.72;83.85;102328.06;2071811;28;20073;-75
2022/08/31 03:20:51;;;;;;;1.63;0.20;;;;;;;10.70;84.21;102336.09;2080375;28;20038;-76
2022/08/31 03:21:53;;;;;;;0.88;0.30;;;;;;;10.75;84.18;102328.03;2087859;28;28633;-75
2022/08/31 03:22:56;;;;;;;2.25;0.30;;;;;;;10.77;84.38;102323.59;2080495;28;20045;-76
2022/08/31 03:24:00;;;;;;;0.90;0.20;;;;;;;10.75;84.22;102323.59;2080045;28;20041;-77
2022/08/31 03:25:03;;;;;;;1.05;0.22;;;;;;;10.76;84.53;102329.81;2071306;28;20090;-76
2022/08/31 03:26:05;;;;;;;1.63;0.25;;;;;;;10.72;84.22;102322.69;2072802;28;20916;-75
2022/08/31 03:27:07;;;;;;;1.30;0.20;;;;;;;10.69;84.02;102321.81;2080528;28;20089;-76
2022/08/31 03:28:10;;;;;;;0.95;0.28;;;;;;;10.64;84.10;102331.63;2071496;28;20098;-76
2022/08/31 03:29:16;;;;;;;0.80;0.20;;;;;;;10.67;84.94;102330.72;2072768;28;20047;-76
2022/08/31 03:30:43;;;;;;;1.67;0.20;;;;;;;10.62;84.77;102328.06;2081357;28;20041;-75
2022/08/31 03:31:46;;;;;;;0.95;0.30;;;;;;;10.62;85.00;102330.75;2080306;28;20050;-75
2022/08/31 03:32:49;;;;;;;0.52;0.28;;;;;;;10.62;85.68;102338.78;2079767;28;20144;-76
2022/08/31 03:33:51;;;;;;;1.17;0.30;;;;;;;10.55;85.21;102325.38;2080437;28;20038;-75
2022/08/31 03:34:55;;;;;;;0.80;0.30;;;;;;;10.55;85.65;102336.09;2088459;28;21077;-75
2022/08/31 03:35:58;;;;;;;0.60;0.28;;;;;;;10.55;85.59;102333.41;2088005;28;20034;-74
2022/08/31 03:36:59;;;;;;;2.90;0.40;;;;;;;10.52;85.70;102328.97;2071979;28;20053;-75
2022/08/31 03:38:04;;;;;;;3.38;0.98;;;;;;;10.53;85.73;102330.72;2072336;28;20077;-75
2022/08/31 03:39:06;;;;;;;4.07;0.40;;;;;;;10.53;85.75;102330.72;2071639;28;20095;-75
2022/08/31 03:40:09;;;;;;;0.90;0.30;;;;;;;10.49;85.71;102328.94;2063950;28;20174;-75
2022/08/31 03:41:17;;;;;;;0.95;0.40;;;;;;;10.50;86.34;102328.06;2071718;28;20950;-75
2022/08/31 03:42:19;;;;;;;0.88;0.40;;;;;;;10.49;86.29;102334.31;2080925;28;20046;-76
2022/08/31 03:43:21;;;;;;;2.97;0.55;;;;;;;10.42;85.85;102327.16;2087087;28;20029;-76
2022/08/31 03:44:25;;;;;;;0.98;0.30;;;;;;;10.41;86.22;102323.59;2071739;28;20038;-76
2022/08/31 03:45:30;;;;;;;2.05;0.40;;;;;;;10.42;86.55;102324.50;2080569;28;20129;-75
2022/08/31 03:46:33;;;;;;;1.10;0.20;;;;;;;10.36;85.99;102325.38;2079772;28;20049;-75
2022/08/31 03:47:36;;;;;;;0.70;0.40;;;;;;;10.35;86.34;102331.63;2080189;28;20073;-76
2022/08/31 03:48:38;;;;;;;0.93;0.40;;;;;;;10.35;86.22;102320.03;2072314;28;20042;-76
2022/08/31 03:49:41;;;;;;;1.05;0.30;;;;;;;10.30;87.05;102315.53;2072247;28;20042;-76
2022/08/31 03:51:04;;;;;;;0.80;0.30;;;;;;;10.34;87.36;102319.16;2087791;28;20088;-76
2022/08/31 03:52:08;;;;;;;0.70;0.38;;;;;;;10.37;87.97;102324.47;2088421;28;20080;-75
2022/08/31 03:53:18;;;;;;;0.65;0.30;;;;;;;10.36;87.08;102325.38;2088125;28;20933;-76
2022/08/31 03:54:27;;;;;;;2.00;0.40;;;;;;;10.32;87.02;102324.50;2078888;28;20097;-75
2022/08/31 03:55:31;;;;;;;1.20;0.40;;;;;;;10.35;87.59;102328.06;2079982;28;20887;-76
2022/08/31 03:56:33;;;;;;;2.53;0.40;;;;;;;10.37;87.72;102331.63;2080206;28;20045;-76
2022/08/31 03:57:36;;;;;;;2.03;0.40;;;;;;;10.38;87.31;102328.06;2063419;28;20031;-76
2022/08/31 03:58:39;;;;;;;1.00;0.40;;;;;;;10.38;87.62;102333.44;2072340;28;20860;-76
2022/08/31 03:59:41;;;;;;;2.15;0.30;;;;;;;10.35;87.58;102334.28;2072410;28;20043;-76
2022/08/31 04:00:53;;;;;;;0.73;0.40;;;;;;;10.37;88.04;102331.63;2081278;28;20057;-76
2022/08/31 04:02:17;;;;;;;3.13;0.50;;;;;;;10.26;87.66;102331.59;2079726;28;20073;-76
2022/08/31 04:03:53;;;;;;;2.25;0.40;;;;;;;10.24;88.12;102336.94;2047395;28;20043;-76
2022/08/31 04:05:35;;;;;;;2.55;0.55;;;;;;;10.26;88.70;102335.16;2062105;28;20086;-75
2022/08/31 04:06:45;;;;;;;1.05;0.50;;;;;;;10.27;88.14;102342.28;2062550;28;20177;-76
2022/08/31 04:08:05;;;;;;;1.45;0.32;;;;;;;10.24;88.80;102342.28;2078181;28;20060;-76
2022/08/31 04:09:19;;;;;;;2.17;0.40;;;;;;;10.28;88.48;102348.53;2088878;28;20123;-76
2022/08/31 04:10:51;;;;;;;1.88;0.60;;;;;;;10.30;87.87;102347.66;2084590;28;20042;-76
2022/08/31 04:12:11;;;;;;;0.82;0.40;;;;;;;10.24;88.54;102349.44;2078842;28;20046;-76
2022/08/31 04:13:38;;;;;;;3.08;0.50;;;;;;;10.26;88.55;102350.31;2044921;28;20205;-76
2022/08/31 04:15:01;;;;;;;1.17;0.47;;;;;;;10.25;88.83;102349.44;2089405;28;20041;-75
2022/08/31 04:16:42;;;;;;;2.38;0.43;;;;;;;10.18;88.68;102347.66;2088404;28;20037;-75
2022/08/31 04:18:12;;;;;;;2.35;0.50;;;;;;;10.17;89.02;102359.22;2086565;28;20042;-76
2022/08/31 04:19:18;;;;;;;1.10;0.70;;;;;;;10.18;89.34;102357.47;2080023;28;20077;-75
2022/08/31 04:20:46;;;;;;;1.08;0.50;;;;;;;10.17;89.41;102344.97;2064304;28;20055;-75
2022/08/31 04:21:48;;;;;;;2.15;0.60;;;;;;;10.13;89.63;102354.78;2071513;28;20041;-76
2022/08/31 04:22:50;;;;;;;2.78;0.63;;;;;;;10.10;90.33;102350.31;2071820;28;20084;-76
2022/08/31 04:24:02;;;;;;;1.30;0.50;;;;;;;10.15;89.76;102355.66;2079911;28;20184;-76
2022/08/31 04:25:06;;;;;;;3.75;0.60;;;;;;;10.20;89.40;102351.22;2079997;28;20124;-76
2022/08/31 04:26:21;;;;;;;0.70;0.30;;;;;;;10.20;89.92;102348.53;2087481;28;31126;-76
2022/08/31 04:27:23;;;;;;;1.55;0.55;;;;;;;10.20;89.30;102355.69;2087981;28;20084;-76
2022/08/31 04:28:24;;;;;;;1.23;0.50;;;;;;;10.24;89.73;102347.63;2101572;22;20053;-71
2022/08/31 04:29:26;;;;;;;1.95;0.70;;;;;;;10.24;89.30;102344.97;2081710;28;23441;-71
2022/08/31 04:30:28;;;;;;;1.85;0.60;;;;;;;10.26;89.31;102350.31;2072294;28;20051;-69
2022/08/31 04:31:30;;;;;;;0.80;0.50;;;;;;;10.24;89.43;102350.31;2079145;28;20097;-69
2022/08/31 04:32:33;;;;;;;3.55;0.60;;;;;;;10.26;89.95;102353.88;2087808;28;20144;-70
2022/08/31 04:33:37;;;;;;;1.63;0.60;;;;;;;10.24;89.13;102358.34;2079561;28;20103;-70
2022/08/31 04:34:39;;;;;;;1.00;0.50;;;;;;;10.21;89.05;102362.81;2071654;28;20196;-69
2022/08/31 04:35:42;;;;;;;1.63;0.60;;;;;;;10.19;89.41;102348.53;2080253;28;20935;-69
2022/08/31 04:36:44;;;;;;;1.95;0.43;;;;;;;10.19;89.79;102353.88;2087821;28;20175;-71
2022/08/31 04:37:49;;;;;;;1.00;0.50;;;;;;;10.19;90.05;102360.13;2079980;28;20073;-68
2022/08/31 04:38:55;;;;;;;0.90;0.50;;;;;;;10.24;89.69;102357.47;2079754;28;20089;-71
2022/08/31 04:40:00;;;;;;;1.27;0.63;;;;;;;10.23;90.16;102367.28;2088775;28;20030;-71
2022/08/31 04:41:05;;;;;;;1.92;0.60;;;;;;;10.22;90.11;102359.25;2079457;28;20904;-69
2022/08/31 04:42:10;;;;;;;1.35;0.50;;;;;;;10.26;90.28;102351.22;2079505;28;20131;-69
2022/08/31 04:43:12;;;;;;;1.02;0.65;;;;;;;10.29;89.30;102364.59;2079634;28;20040;-69
2022/08/31 04:44:14;;;;;;;4.05;0.68;;;;;;;10.28;89.98;102365.50;2079780;28;20107;-69
2022/08/31 04:45:23;;;;;;;2.03;0.60;;;;;;;10.32;89.98;102367.31;2079376;28;20053;-69
2022/08/31 04:46:30;;;;;;;2.58;0.80;;;;;;;10.32;89.83;102369.13;2080366;28;20961;-69
2022/08/31 04:47:34;;;;;;;1.45;0.60;;;;;;;10.32;89.65;102364.66;2079701;28;20038;-69
2022/08/31 04:48:39;;;;;;;1.40;0.60;;;;;;;10.38;90.07;102366.44;2080858;28;20041;-70
2022/08/31 04:49:40;;;;;;;2.13;0.73;;;;;;;10.35;89.58;102373.56;2079241;28;20838;-70
2022/08/31 04:50:42;;;;;;;1.38;0.68;;;;;;;10.42;89.34;102372.69;2080026;28;20120;-70
2022/08/31 04:51:44;;;;;;;2.78;0.80;;;;;;;10.61;88.93;102374.47;2079303;28;20156;-70
2022/08/31 04:52:49;;;;;;;2.45;0.55;;;;;;;10.89;88.23;102377.13;2071391;28;20054;-70
2022/08/31 04:53:59;;;;;;;0.90;0.40;;;;;;;11.18;86.08;102369.06;2079826;28;20038;-70
2022/08/31 04:55:02;;;;;;;1.30;0.50;;;;;;;11.50;84.95;102377.88;2081060;28;20160;-70
2022/08/31 04:56:14;;;;;;;3.90;0.60;;;;;;;11.83;82.99;102372.38;2071282;28;20923;-70
2022/08/31 04:57:17;;;;;;;1.77;0.40;;;;;;;12.13;80.77;102377.59;2066441;28;20039;-70
2022/08/31 04:58:22;;;;;;;0.90;0.40;;;;;;;12.49;79.94;102368.41;2071789;28;20065;-70
2022/08/31 04:59:26;;;;;;;1.15;0.40;;;;;;;12.73;77.26;102371.81;2066201;28;20510;-70
2022/08/31 05:00:48;;;;;;;1.30;0.30;;;;;;;13.13;75.32;102369.59;2074360;28;20046;-70
2022/08/31 05:02:08;;;;;;;1.10;0.30;;;;;;;13.47;75.13;102371.94;2071099;28;20053;-70
2022/08/31 05:03:19;;;;;;;1.75;0.30;;;;;;;13.67;72.99;102377.06;2073034;28;20035;-70
2022/08/31 05:04:24;;;;;;;2.03;0.40;;;;;;;13.97;71.97;102372.19;2071155;28;20106;-70
2022/08/31 05:05:26;;;;;;;1.63;0.40;;;;;;;14.18;72.40;102373.69;2071414;28;20160;-70
2022/08/31 05:06:31;;;;;;;0.52;0.20;;;;;;;14.27;71.28;102370.84;2071203;28;20124;-70
2022/08/31 05:07:36;;;;;;;1.25;0.40;;;;;;;14.57;69.58;102367.69;2071958;28;20034;-70
2022/08/31 05:08:39;;;;;;;1.30;0.30;;;;;;;15.11;68.38;102374.84;2071429;28;20963;-70